createdAt,value
2022-09-21T00:01:30.220Z,81.99
2022-09-21T00:04:02.032Z,81.63
2022-09-21T00:06:32.262Z,81.79
2022-09-21T00:08:59.844Z,81.87
2022-09-21T00:11:30.513Z,81.61
2022-09-21T00:14:04.615Z,82.07
2022-09-21T00:16:32.413Z,82.18
2022-09-21T00:19:00.449Z,82.16
2022-09-21T00:21:28.343Z,82.40
2022-09-21T00:23:55.705Z,82.04
2022-09-21T00:26:26.194Z,81.71
2022-09-21T00:29:04.359Z,82.07
2022-09-21T00:31:32.890Z,81.81
2022-09-21T00:34:01.042Z,81.74
2022-09-21T00:36:28.929Z,82.49
2022-09-21T00:39:01.036Z,82.00
2022-09-21T00:41:31.457Z,82.71
2022-09-21T00:44:21.060Z,81.44
2022-09-21T00:46:52.586Z,81.90
2022-09-21T00:49:21.252Z,81.53
2022-09-21T00:51:49.762Z,81.13
2022-09-21T00:54:30.274Z,81.41
2022-09-21T00:57:03.129Z,81.77
2022-09-21T00:59:34.354Z,81.44
2022-09-21T01:02:01.984Z,81.96
2022-09-21T01:04:29.351Z,81.48
2022-09-21T01:07:00.895Z,81.40
2022-09-21T01:09:28.931Z,81.30
2022-09-21T01:12:18.501Z,80.87
2022-09-21T01:14:54.731Z,80.89
2022-09-21T01:17:43.613Z,81.06
2022-09-21T01:20:40.330Z,81.27
2022-09-21T01:23:47.830Z,81.42
2022-09-21T01:26:57.465Z,81.32
2022-09-21T01:30:00.326Z,81.20
2022-09-21T01:32:57.650Z,81.07
2022-09-21T01:35:38.155Z,80.98
2022-09-21T01:38:24.661Z,80.77
2022-09-21T01:41:03.076Z,80.57
2022-09-21T01:43:43.540Z,80.66
2022-09-21T01:46:17.573Z,81.12
2022-09-21T01:48:52.415Z,80.79
2022-09-21T01:51:22.122Z,80.36
2022-09-21T01:54:02.450Z,80.55
2022-09-21T01:56:46.649Z,79.80
2022-09-21T01:59:21.970Z,80.23
2022-09-21T02:02:20.546Z,80.41
2022-09-21T02:04:47.859Z,80.14
2022-09-21T02:07:17.756Z,80.69
2022-09-21T02:09:47.131Z,80.48
2022-09-21T02:12:18.898Z,80.16
2022-09-21T02:14:47.150Z,80.05
2022-09-21T02:17:54.677Z,80.20
2022-09-21T02:20:32.577Z,79.85
2022-09-21T02:23:34.742Z,80.03
2022-09-21T02:26:34.127Z,80.09
2022-09-21T02:29:27.659Z,81.19
2022-09-21T02:32:09.759Z,81.22
2022-09-21T02:35:08.257Z,81.61
2022-09-21T02:37:55.580Z,81.47
2022-09-21T02:40:41.669Z,81.63
2022-09-21T02:43:33.424Z,81.77
2022-09-21T02:46:15.648Z,81.17
2022-09-21T02:48:56.975Z,81.68
2022-09-21T02:51:35.469Z,81.76
2022-09-21T02:54:06.806Z,81.36
2022-09-21T02:56:35.301Z,81.27
2022-09-21T02:59:05.266Z,81.74
2022-09-21T03:01:33.953Z,81.59
2022-09-21T03:04:01.531Z,82.15
2022-09-21T03:06:29.017Z,81.88
2022-09-21T03:08:57.931Z,81.76
2022-09-21T03:11:25.776Z,82.26
2022-09-21T03:13:53.224Z,81.68
2022-09-21T03:16:20.552Z,82.14
2022-09-21T03:18:47.813Z,81.40
2022-09-21T03:21:15.048Z,81.83
2022-09-21T03:23:42.312Z,81.90
2022-09-21T03:26:09.655Z,82.24
2022-09-21T03:28:36.858Z,82.13
2022-09-21T03:31:04.152Z,82.31
2022-09-21T03:33:31.576Z,81.82
2022-09-21T03:35:59.544Z,82.01
2022-09-21T03:38:27.035Z,82.48
2022-09-21T03:40:58.183Z,82.11
2022-09-21T03:43:25.966Z,82.08
2022-09-21T03:45:54.003Z,81.85
2022-09-21T03:48:22.282Z,81.93
2022-09-21T03:50:49.658Z,81.40
2022-09-21T03:53:17.459Z,81.70
2022-09-21T03:55:44.698Z,82.40
2022-09-21T03:58:12.044Z,82.07
2022-09-21T04:00:39.375Z,81.67
2022-09-21T04:03:06.763Z,81.24
2022-09-21T04:05:34.292Z,82.38
2022-09-21T04:08:02.312Z,82.70
2022-09-21T04:10:33.138Z,81.89
2022-09-21T04:13:04.465Z,81.62
2022-09-21T04:15:32.614Z,81.70
2022-09-21T04:17:59.868Z,81.63
2022-09-21T04:20:27.341Z,81.73
2022-09-21T04:22:54.587Z,82.07
2022-09-21T04:25:21.876Z,81.90
2022-09-21T04:27:49.118Z,81.97
2022-09-21T04:30:17.861Z,81.77
2022-09-21T04:32:45.548Z,82.26
2022-09-21T04:35:12.763Z,82.24
2022-09-21T04:37:39.994Z,82.09
2022-09-21T04:40:09.458Z,82.00
2022-09-21T04:42:37.155Z,81.55
2022-09-21T04:45:05.339Z,82.11
2022-09-21T04:47:32.842Z,82.39
2022-09-21T04:50:00.026Z,82.22
2022-09-21T04:52:27.239Z,82.04
2022-09-21T04:54:54.421Z,81.79
2022-09-21T04:57:21.659Z,81.85
2022-09-21T04:59:49.116Z,82.28
2022-09-21T05:02:16.437Z,82.51
2022-09-21T05:04:47.489Z,82.30
2022-09-21T05:07:17.804Z,82.26
2022-09-21T05:10:03.294Z,82.53
2022-09-21T05:12:38.547Z,82.23
2022-09-21T05:15:07.836Z,82.13
2022-09-21T05:17:34.998Z,82.08
2022-09-21T05:20:02.600Z,81.75
2022-09-21T05:22:29.934Z,82.26
2022-09-21T05:24:57.188Z,82.04
2022-09-21T05:27:24.409Z,82.05
2022-09-21T05:29:52.054Z,82.41
2022-09-21T05:32:48.422Z,81.58
2022-09-21T05:35:27.531Z,82.39
2022-09-21T05:38:16.869Z,82.56
2022-09-21T05:40:44.820Z,82.70
2022-09-21T05:43:12.460Z,82.31
2022-09-21T05:45:51.647Z,82.16
2022-09-21T05:48:27.431Z,82.68
2022-09-21T05:51:27.939Z,82.05
2022-09-21T05:54:05.440Z,82.76
2022-09-21T05:56:50.216Z,82.79
2022-09-21T05:59:41.778Z,82.37
2022-09-21T06:02:20.769Z,82.71
2022-09-21T06:04:49.575Z,83.44
2022-09-21T06:07:16.749Z,83.14
2022-09-21T06:09:55.853Z,83.88
2022-09-21T06:12:23.068Z,82.72
2022-09-21T06:14:50.302Z,84.33
2022-09-21T06:17:17.534Z,84.30
2022-09-21T06:19:44.747Z,84.55
2022-09-21T06:22:11.899Z,83.19
2022-09-21T06:24:39.067Z,83.13
2022-09-21T06:27:06.481Z,82.95
2022-09-21T06:29:33.649Z,81.72
2022-09-21T06:32:03.823Z,81.66
2022-09-21T06:34:31.181Z,82.06
2022-09-21T06:36:58.828Z,82.49
2022-09-21T06:39:26.035Z,80.98
2022-09-21T06:41:53.379Z,80.63
2022-09-21T06:44:20.641Z,81.61
2022-09-21T06:46:47.886Z,81.99
2022-09-21T06:49:15.118Z,81.57
2022-09-21T06:51:43.400Z,80.75
2022-09-21T06:54:11.467Z,81.13
2022-09-21T06:56:38.912Z,80.09
2022-09-21T06:59:06.269Z,80.89
2022-09-21T07:01:33.487Z,80.50
2022-09-21T07:04:01.150Z,80.81
2022-09-21T07:06:29.452Z,80.19
2022-09-21T07:11:43.881Z,80.90
2022-09-21T07:14:11.096Z,80.23
2022-09-21T07:16:38.280Z,77.14
2022-09-21T07:19:13.056Z,76.92
2022-09-21T07:21:40.363Z,77.81
2022-09-21T07:24:11.908Z,78.14
2022-09-21T07:26:40.040Z,79.17
2022-09-21T07:29:07.481Z,77.69
2022-09-21T07:31:35.272Z,77.48
2022-09-21T07:34:02.627Z,76.55
2022-09-21T07:36:29.842Z,77.05
2022-09-21T07:38:57.028Z,77.65
2022-09-21T07:41:24.197Z,78.05
2022-09-21T07:43:51.463Z,78.36
2022-09-21T07:46:18.890Z,78.39
2022-09-21T07:48:46.244Z,78.43
2022-09-21T07:51:15.608Z,77.55
2022-09-21T07:53:44.842Z,78.18
2022-09-21T07:56:15.811Z,78.06
2022-09-21T07:59:02.970Z,75.27
2022-09-21T08:01:31.260Z,77.37
2022-09-21T08:03:59.646Z,76.35
2022-09-21T08:06:30.504Z,75.67
2022-09-21T08:08:58.347Z,74.75
2022-09-21T08:11:27.906Z,76.77
2022-09-21T08:14:01.783Z,75.81
2022-09-21T08:16:31.562Z,76.13
2022-09-21T08:18:58.904Z,76.05
2022-09-21T08:21:26.536Z,76.60
2022-09-21T08:23:54.348Z,77.41
2022-09-21T08:26:22.743Z,78.65
2022-09-21T08:28:52.979Z,78.70
2022-09-21T08:31:24.233Z,78.24
2022-09-21T08:33:55.860Z,79.24
2022-09-21T08:36:23.326Z,78.26
2022-09-21T08:39:00.795Z,78.41
2022-09-21T08:41:50.206Z,78.64
2022-09-21T08:44:48.817Z,78.18
2022-09-21T08:47:40.166Z,78.63
2022-09-21T08:50:34.433Z,78.50
2022-09-21T08:53:18.058Z,76.96
2022-09-21T08:55:45.358Z,76.12
2022-09-21T08:58:26.360Z,77.49
2022-09-21T09:01:08.559Z,76.12
2022-09-21T09:04:33.714Z,75.10
2022-09-21T09:07:18.829Z,76.15
2022-09-21T09:10:33.982Z,75.48
2022-09-21T09:13:36.562Z,75.66
2022-09-21T09:16:22.519Z,76.59
2022-09-21T09:19:01.897Z,75.23
2022-09-21T09:21:40.929Z,74.59
2022-09-21T09:24:39.278Z,74.44
2022-09-21T09:27:16.926Z,73.43
2022-09-21T09:30:06.557Z,73.50
2022-09-21T09:32:55.685Z,72.38
2022-09-21T09:35:35.651Z,72.61
2022-09-21T09:38:15.176Z,70.15
2022-09-21T09:40:42.568Z,71.89
2022-09-21T09:43:37.244Z,71.67
2022-09-21T09:46:15.175Z,71.01
2022-09-21T09:49:05.486Z,72.07
2022-09-21T09:51:40.652Z,71.28
2022-09-21T09:54:16.058Z,69.76
2022-09-21T09:56:44.043Z,71.75
2022-09-21T09:59:30.654Z,71.23
2022-09-21T10:02:01.323Z,69.94
2022-09-21T10:04:28.952Z,71.99
2022-09-21T10:06:56.459Z,69.22
2022-09-21T10:09:35.657Z,67.91
2022-09-21T10:12:24.062Z,66.23
2022-09-21T10:14:56.676Z,68.14
2022-09-21T10:17:25.763Z,67.95
2022-09-21T10:20:06.468Z,67.11
2022-09-21T10:22:33.799Z,65.62
2022-09-21T10:25:06.076Z,66.05
2022-09-21T10:27:43.626Z,65.31
2022-09-21T10:30:38.837Z,67.25
2022-09-21T10:33:21.065Z,66.56
2022-09-21T10:35:53.372Z,66.55
2022-09-21T10:38:29.175Z,67.33
2022-09-21T10:40:56.357Z,66.76
2022-09-21T10:43:39.853Z,67.25
2022-09-21T10:46:10.030Z,65.89
2022-09-21T10:48:37.844Z,65.77
2022-09-21T10:51:05.485Z,66.41
2022-09-21T10:53:37.544Z,65.63
2022-09-21T10:56:18.934Z,66.11
2022-09-21T10:59:13.698Z,66.30
2022-09-21T11:01:52.174Z,68.27
2022-09-21T11:04:45.805Z,69.83
2022-09-21T11:07:24.268Z,68.66
2022-09-21T11:10:19.771Z,69.96
2022-09-21T11:13:30.422Z,71.50
2022-09-21T11:16:04.639Z,70.65
2022-09-21T11:18:54.796Z,71.12
2022-09-21T11:21:53.240Z,69.32
2022-09-21T11:24:52.226Z,69.99
2022-09-21T11:27:28.110Z,68.79
2022-09-21T11:30:16.633Z,70.47
2022-09-21T11:32:57.815Z,68.74
2022-09-21T11:36:04.832Z,67.29
2022-09-21T11:39:03.694Z,68.20
2022-09-21T11:41:50.079Z,66.78
2022-09-21T11:44:46.194Z,67.36
2022-09-21T11:47:44.192Z,65.26
2022-09-21T11:50:31.147Z,65.46
2022-09-21T11:53:19.789Z,65.73
2022-09-21T11:55:52.842Z,65.17
2022-09-21T11:58:59.132Z,64.02
2022-09-21T12:01:51.632Z,65.10
2022-09-21T12:04:21.640Z,65.00
2022-09-21T12:07:32.891Z,64.93
2022-09-21T12:10:29.141Z,64.14
2022-09-21T12:13:27.524Z,64.48
2022-09-21T12:16:14.249Z,63.54
2022-09-21T12:19:16.455Z,64.54
2022-09-21T12:21:50.057Z,64.98
2022-09-21T12:24:36.108Z,64.56
2022-09-21T12:27:20.530Z,64.86
2022-09-21T12:29:54.266Z,62.43
2022-09-21T12:32:54.260Z,62.06
2022-09-21T12:36:14.878Z,63.06
2022-09-21T12:38:54.245Z,62.52
2022-09-21T12:41:55.640Z,63.16
2022-09-21T12:44:52.597Z,63.91
2022-09-21T12:47:44.497Z,62.75
2022-09-21T12:50:50.141Z,62.73
2022-09-21T12:53:27.482Z,63.64
2022-09-21T12:55:54.854Z,64.73
2022-09-21T12:58:45.841Z,64.44
2022-09-21T13:01:30.719Z,63.36
2022-09-21T13:04:18.997Z,65.06
2022-09-21T13:07:15.323Z,64.09
2022-09-21T13:09:45.360Z,64.89
2022-09-21T13:12:28.153Z,66.01
2022-09-21T13:15:13.296Z,65.29
2022-09-21T13:17:40.997Z,65.40
2022-09-21T13:20:19.966Z,65.62
2022-09-21T13:22:49.046Z,65.65
2022-09-21T13:25:27.396Z,65.32
2022-09-21T13:28:13.558Z,65.75
2022-09-21T13:30:47.606Z,65.89
2022-09-21T13:33:20.729Z,64.51
2022-09-21T13:35:48.087Z,65.75
2022-09-21T13:38:54.385Z,65.41
2022-09-21T13:41:45.444Z,66.59
2022-09-21T13:44:41.909Z,66.71
2022-09-21T13:47:12.172Z,66.62
2022-09-21T13:49:45.642Z,66.65
2022-09-21T13:52:15.872Z,66.71
2022-09-21T13:54:46.164Z,66.53
2022-09-21T13:57:28.079Z,66.81
2022-09-21T14:00:20.005Z,67.07
2022-09-21T14:03:04.348Z,67.84
2022-09-21T14:05:47.154Z,67.65
2022-09-21T14:08:17.089Z,66.94
2022-09-21T14:11:23.933Z,67.49
2022-09-21T14:14:14.628Z,66.42
2022-09-21T14:16:47.710Z,66.34
2022-09-21T14:19:17.847Z,66.76
2022-09-21T14:22:07.438Z,66.13
2022-09-21T14:24:42.998Z,66.17
2022-09-21T14:27:34.683Z,66.71
2022-09-21T14:30:21.820Z,66.74
2022-09-21T14:33:20.353Z,66.62
2022-09-21T14:35:48.931Z,68.01
2022-09-21T14:38:41.963Z,66.61
2022-09-21T14:41:16.438Z,66.58
2022-09-21T14:43:54.773Z,66.19
2022-09-21T14:46:30.990Z,66.54
2022-09-21T14:49:31.297Z,66.98
2022-09-21T14:52:38.246Z,66.79
2022-09-21T14:55:41.819Z,66.82
2022-09-21T14:58:52.210Z,66.48
2022-09-21T15:01:35.336Z,65.47
2022-09-21T15:04:53.791Z,65.86
2022-09-21T15:08:17.443Z,66.40
2022-09-21T15:11:12.970Z,67.51
2022-09-21T15:13:47.664Z,66.39
2022-09-21T15:16:45.799Z,65.93
2022-09-21T15:19:30.212Z,66.76
2022-09-21T15:22:22.627Z,66.72
2022-09-21T15:24:55.656Z,67.54
2022-09-21T15:27:33.608Z,67.74
2022-09-21T15:30:05.611Z,68.09
2022-09-21T15:32:42.650Z,67.65
2022-09-21T15:35:16.180Z,67.82
2022-09-21T15:37:45.811Z,67.55
2022-09-21T15:40:27.948Z,68.43
2022-09-21T15:43:21.300Z,67.45
2022-09-21T15:46:13.532Z,68.06
2022-09-21T15:48:42.479Z,67.47
2022-09-21T15:51:47.183Z,66.15
2022-09-21T15:54:34.286Z,66.67
2022-09-21T15:57:22.395Z,66.94
2022-09-21T15:59:49.621Z,66.99
2022-09-21T16:02:25.459Z,67.08
2022-09-21T16:04:53.065Z,65.94
2022-09-21T16:07:31.900Z,66.69
2022-09-21T16:10:00.030Z,66.57
2022-09-21T16:12:27.113Z,67.01
2022-09-21T16:14:54.679Z,67.14
2022-09-21T16:17:28.716Z,68.09
2022-09-21T16:19:56.421Z,68.08
2022-09-21T16:22:47.497Z,69.49
2022-09-21T16:25:37.691Z,69.16
2022-09-21T16:28:30.792Z,69.93
2022-09-21T16:30:59.244Z,69.26
2022-09-21T16:34:18.580Z,69.18
2022-09-21T16:36:46.283Z,69.66
2022-09-21T16:39:16.531Z,70.07
2022-09-21T16:42:02.067Z,70.61
2022-09-21T16:44:34.419Z,70.49
2022-09-21T16:47:03.921Z,70.10
2022-09-21T16:49:34.915Z,70.62
2022-09-21T16:52:02.408Z,70.38
2022-09-21T16:54:30.314Z,70.21
2022-09-21T16:57:01.305Z,70.98
2022-09-21T16:59:29.289Z,69.90
2022-09-21T17:01:59.089Z,70.56
2022-09-21T17:04:31.343Z,70.08
2022-09-21T17:06:59.226Z,70.02
2022-09-21T17:09:38.972Z,69.67
2022-09-21T17:12:09.763Z,70.14
2022-09-21T17:14:42.930Z,69.83
2022-09-21T17:17:23.298Z,70.45
2022-09-21T17:19:53.781Z,70.96
2022-09-21T17:22:21.994Z,70.50
2022-09-21T17:24:52.281Z,70.86
2022-09-21T17:27:26.792Z,70.30
2022-09-21T17:29:55.302Z,70.43
2022-09-21T17:32:24.729Z,70.62
2022-09-21T17:35:01.920Z,70.63
2022-09-21T17:37:29.478Z,70.84
2022-09-21T17:39:56.689Z,70.91
2022-09-21T17:42:25.869Z,71.18
2022-09-21T17:45:02.122Z,71.74
2022-09-21T17:47:33.263Z,71.84
2022-09-21T17:50:12.830Z,71.34
2022-09-21T17:53:01.274Z,71.88
2022-09-21T17:55:28.879Z,71.96
2022-09-21T17:58:42.049Z,72.77
2022-09-21T18:01:43.573Z,72.45
2022-09-21T18:04:11.329Z,72.84
2022-09-21T18:06:38.952Z,72.54
2022-09-21T18:09:07.003Z,72.65
2022-09-21T18:12:07.488Z,73.43
2022-09-21T18:14:53.033Z,73.43
2022-09-21T18:17:37.307Z,73.59
2022-09-21T18:20:43.273Z,73.70
2022-09-21T18:23:52.784Z,73.72
2022-09-21T18:26:20.863Z,74.10
2022-09-21T18:28:57.135Z,73.76
2022-09-21T18:31:58.035Z,73.54
2022-09-21T18:35:00.062Z,73.85
2022-09-21T18:38:05.316Z,74.15
2022-09-21T18:40:44.440Z,74.07
2022-09-21T18:43:47.682Z,74.45
2022-09-21T18:46:38.337Z,73.72
2022-09-21T18:49:43.311Z,74.32
2022-09-21T18:53:09.572Z,74.35
2022-09-21T18:55:37.560Z,74.50
2022-09-21T18:58:05.310Z,74.37
2022-09-21T19:00:34.760Z,74.39
2022-09-21T19:03:17.666Z,75.49
2022-09-21T19:06:22.271Z,75.77
2022-09-21T19:09:22.934Z,76.23
2022-09-21T19:12:13.386Z,76.18
2022-09-21T19:14:57.472Z,76.52
2022-09-21T19:17:53.605Z,76.81
2022-09-21T19:20:57.033Z,76.81
2022-09-21T19:23:51.853Z,76.53
2022-09-21T19:26:36.045Z,76.53
2022-09-21T19:29:35.337Z,76.95
2022-09-21T19:32:02.665Z,77.46
2022-09-21T19:34:30.229Z,76.87
2022-09-21T19:37:00.912Z,76.78
2022-09-21T19:39:29.955Z,77.52
2022-09-21T19:42:36.097Z,76.99
2022-09-21T19:45:23.212Z,76.76
2022-09-21T19:48:05.064Z,77.13
2022-09-21T19:50:46.795Z,76.88
2022-09-21T19:53:34.526Z,77.31
2022-09-21T19:56:21.034Z,76.79
2022-09-21T19:59:06.980Z,77.29
2022-09-21T20:01:37.699Z,77.11
2022-09-21T20:04:06.826Z,77.64
2022-09-21T20:06:48.087Z,77.51
2022-09-21T20:09:29.287Z,77.24
2022-09-21T20:12:34.269Z,77.24
2022-09-21T20:15:12.419Z,77.37
2022-09-21T20:18:19.285Z,76.71
2022-09-21T20:20:46.618Z,76.94
2022-09-21T20:23:14.402Z,76.92
2022-09-21T20:25:57.856Z,76.77
2022-09-21T20:28:26.209Z,76.72
2022-09-21T20:30:56.493Z,77.21
2022-09-21T20:33:24.812Z,76.79
2022-09-21T20:35:55.427Z,76.76
2022-09-21T20:38:23.519Z,76.19
2022-09-21T20:40:51.685Z,76.54
2022-09-21T20:43:19.618Z,76.36
2022-09-21T20:45:49.407Z,76.58
2022-09-21T20:48:20.101Z,75.96
2022-09-21T20:50:49.400Z,76.00
2022-09-21T20:53:19.214Z,76.72
2022-09-21T20:55:55.610Z,76.89
2022-09-21T20:58:23.938Z,76.24
2022-09-21T21:00:56.412Z,76.07
2022-09-21T21:03:25.923Z,75.67
2022-09-21T21:05:53.166Z,75.85
2022-09-21T21:08:20.412Z,75.71
2022-09-21T21:10:47.706Z,75.81
2022-09-21T21:13:14.986Z,75.83
2022-09-21T21:15:42.207Z,75.48
2022-09-21T21:18:12.414Z,75.75
2022-09-21T21:20:41.047Z,75.34
2022-09-21T21:23:08.724Z,75.17
2022-09-21T21:25:36.084Z,75.50
2022-09-21T21:28:03.971Z,75.88
2022-09-21T21:30:31.580Z,75.83
2022-09-21T21:32:58.836Z,76.21
2022-09-21T21:35:26.195Z,75.86
2022-09-21T21:37:53.386Z,75.32
2022-09-21T21:40:20.917Z,75.63
2022-09-21T21:42:48.597Z,75.99
2022-09-21T21:45:15.955Z,75.99
2022-09-21T21:47:43.219Z,75.74
2022-09-21T21:50:11.545Z,76.27
2022-09-21T21:52:38.901Z,76.59
2022-09-21T21:55:07.895Z,76.48
2022-09-21T21:57:35.099Z,75.86
2022-09-21T22:00:04.158Z,76.03
2022-09-21T22:02:32.430Z,75.96
2022-09-21T22:04:59.747Z,75.87
2022-09-21T22:07:26.954Z,76.01
2022-09-21T22:09:54.283Z,75.55
2022-09-21T22:12:22.162Z,75.27
2022-09-21T22:14:49.539Z,75.88
2022-09-21T22:17:16.733Z,75.41
2022-09-21T22:19:44.066Z,75.55
2022-09-21T22:22:11.288Z,75.64
2022-09-21T22:24:38.444Z,76.02
2022-09-21T22:27:05.705Z,76.60
2022-09-21T22:29:32.929Z,76.24
2022-09-21T22:32:00.600Z,76.18
2022-09-21T22:34:27.814Z,75.77
2022-09-21T22:36:56.405Z,75.54
2022-09-21T22:39:23.609Z,75.32
2022-09-21T22:41:50.866Z,75.51
2022-09-21T22:44:18.046Z,76.01
2022-09-21T22:46:45.208Z,76.03
2022-09-21T22:49:12.407Z,75.79
2022-09-21T22:51:39.625Z,75.37
2022-09-21T22:54:06.902Z,75.37
2022-09-21T22:56:34.621Z,75.71
2022-09-21T22:59:04.867Z,75.33
2022-09-21T23:01:36.599Z,75.60
2022-09-21T23:04:08.670Z,75.66
2022-09-21T23:06:39.115Z,75.62
2022-09-21T23:09:13.672Z,75.44
2022-09-21T23:11:43.601Z,75.38
2022-09-21T23:14:15.319Z,75.26
2022-09-21T23:16:45.450Z,75.38
2022-09-21T23:19:16.217Z,75.32
2022-09-21T23:21:46.801Z,75.58
2022-09-21T23:24:14.051Z,75.97
2022-09-21T23:26:41.610Z,75.66
2022-09-21T23:29:15.119Z,75.21
2022-09-21T23:31:45.461Z,75.49
2022-09-21T23:34:14.516Z,74.79
2022-09-21T23:36:42.786Z,74.94
2022-09-21T23:39:13.474Z,75.63
2022-09-21T23:41:40.839Z,76.07
2022-09-21T23:44:08.439Z,75.85
2022-09-21T23:46:38.476Z,76.01
2022-09-21T23:49:06.269Z,76.63
2022-09-21T23:51:33.603Z,76.57
2022-09-21T23:54:01.557Z,75.90
2022-09-21T23:56:30.137Z,74.99
2022-09-21T23:58:57.752Z,74.71
